Flight Track Log - Related Links

Times and Time Zones

All times are in EDT time to prevent confusion due to time zone crossing. See the VH-ZMB flight status page for this flight to view local times or setup timezone preferences in your user account.

Time Position Orientation Groundspeed Altitude Reporting Facility
EDT Latitude Longitude Course Direction KTS MPH feet Rate Location/Type
Fri 05:55:00 AM -19.8510 134.1662 360° North 9,000  Level Aus ATC (Calculated)
Fri 05:55:27 AM -19.8510 134.1662 360° North 9,000  Level Aus ATC (Calculated)
Fri 05:56:00 AM -19.8510 134.1662 184° South 9,000  Level Aus ATC (Calculated)
Fri 05:57:00 AM -19.8969 134.1629 184° South  Level FlightAware Approximate
Fri 05:58:00 AM -19.9429 134.1596 184° South  Level FlightAware Approximate
Fri 05:59:00 AM -19.9889 134.1563 184° South  Level FlightAware Approximate
Fri 05:59:00 AM -20.0131 134.1546 184° South 9,000  Level Aus ATC (Calculated)
Fri 06:00:00 AM -20.0591 134.1513 184° South  Level FlightAware Approximate
Fri 06:01:00 AM -20.1051 134.1480 184° South  Level FlightAware Approximate
Fri 06:01:01 AM -20.1213 134.1468 184° South 9,000  Level Aus ATC (Calculated)
Fri 06:03:00 AM -20.2124 134.1402 184° South  Level FlightAware Approximate
Fri 06:04:00 AM -20.2584 134.1369 184° South  Level FlightAware Approximate
Fri 06:05:00 AM -20.3044 134.1336 184° South  Level FlightAware Approximate
Fri 06:06:00 AM -20.3503 134.1303 184° South  Level FlightAware Approximate
Fri 06:06:05 AM -20.3375 134.1312 184° South 9,000  Level Aus ATC (Calculated)
Fri 06:08:00 AM -20.4286 134.1246 184° South  Level FlightAware Approximate
Fri 06:09:00 AM -20.4762 134.1212 184° South  Level FlightAware Approximate
Fri 06:10:00 AM -20.5237 134.1178 184° South  Level FlightAware Approximate
Fri 06:11:00 AM -20.5712 134.1143 184° South  Level FlightAware Approximate
Fri 06:12:00 AM -20.6618 134.1078 North 9,000  Level Aus ATC (Calculated)
Fri 06:12:00 AM -20.6188 134.1109 184° South  Level FlightAware Approximate
Fri 06:13:00 AM -20.7094 134.1043 184° South  Level FlightAware Approximate
Fri 06:13:06 AM -20.7159 134.1038 248° West 9,000  Level Aus ATC (Calculated)
Fri 06:13:06 AM -20.7159 134.1038 184° South 9,000  Level Aus ATC (Calculated)
Fri 06:15:00 AM -20.8062 134.0973 184° South  Level FlightAware Approximate
Fri 06:16:00 AM -20.8538 134.0938 184° South  Level FlightAware Approximate
Fri 06:17:00 AM -20.9013 134.0904 184° South  Level FlightAware Approximate
Fri 06:18:00 AM -20.9488 134.0869 184° South  Level FlightAware Approximate
Fri 06:19:00 AM -20.9964 134.0835 184° South  Level FlightAware Approximate
Fri 06:20:00 AM -21.0439 134.0800 184° South  Level FlightAware Approximate
Fri 06:21:00 AM -21.0914 134.0765 184° South  Level FlightAware Approximate
Fri 06:21:44 AM -21.0943 134.0763 184° South 9,000  Level Aus ATC (Calculated)
Fri 06:22:00 AM -21.1390 134.0731 184° South  Level FlightAware Approximate
Fri 06:23:00 AM -21.1545 134.0719 184° South  Level FlightAware Approximate
Fri 06:24:00 AM -21.2020 134.0685 184° South  Level FlightAware Approximate
Fri 06:25:00 AM -21.2495 134.0650 184° South  Level FlightAware Approximate
Fri 06:25:04 AM -21.2564 134.0645 183° South 9,000  Level Aus ATC (Calculated)
Fri 06:27:00 AM -21.3484 134.0587 184° South  Level Estimated
Fri 06:28:00 AM -21.3959 134.0553 184° South  Level FlightAware Approximate
Fri 06:28:04 AM -21.4538 134.0501 360° North 9,000  Level Aus ATC (Calculated)
Fri 06:28:41 AM -21.4538 134.0501 184° South 9,000  Level Aus ATC (Calculated)
Fri 06:30:00 AM -21.5194 134.0453 184° South  Level FlightAware Approximate
Fri 06:30:18 AM -21.5431 134.0436 184° South 9,000  Level Aus ATC (Calculated)
Fri 06:32:00 AM -21.6278 134.0374 184° South  Level FlightAware Approximate
Fri 06:32:11 AM -21.6325 134.0371 184° South 9,000  Level Aus ATC (Calculated)
Fri 06:34:00 AM -21.7229 134.0305 184° South  Level FlightAware Approximate
Fri 06:35:00 AM -21.7727 134.0268 184° South  Level FlightAware Approximate
Fri 06:36:00 AM -21.8225 134.0232 184° South  Level FlightAware Approximate
Fri 06:37:00 AM -21.8723 134.0195 184° South  Level FlightAware Approximate
Fri 06:38:00 AM -21.9221 134.0159 184° South  Level FlightAware Approximate
Fri 06:39:00 AM -21.9719 134.0122 184° South  Level FlightAware Approximate
Fri 06:40:00 AM -22.0217 134.0086 184° South  Level FlightAware Approximate
Fri 06:41:00 AM -22.0715 134.0049 184° South  Level FlightAware Approximate
Fri 06:42:00 AM -22.1213 134.0013 184° South  Level FlightAware Approximate
Fri 06:43:00 AM -22.1711 133.9976 184° South  Level FlightAware Approximate
Fri 06:44:00 AM -22.2209 133.9939 184° South  Level FlightAware Approximate
Fri 06:45:00 AM -22.2707 133.9903 184° South  Level FlightAware Approximate
Fri 06:46:00 AM -22.3205 133.9866 184° South  Level FlightAware Approximate
Fri 06:47:00 AM -22.3703 133.9829 184° South  Level FlightAware Approximate
Fri 06:48:00 AM -22.4201 133.9792 184° South  Level FlightAware Approximate
Fri 06:49:00 AM -22.4699 133.9756 184° South  Level FlightAware Approximate
Fri 06:50:00 AM -22.5197 133.9719 184° South  Level FlightAware Approximate
Fri 06:51:00 AM -22.5695 133.9682 184° South  Level FlightAware Approximate
Fri 06:52:00 AM -22.6193 133.9645 184° South  Level FlightAware Approximate
Fri 06:53:00 AM -22.6691 133.9608 184° South  Level FlightAware Approximate
Fri 06:53:00 AM -22.6149 133.9648 184° South 9,000  Level Aus ATC (Calculated)
Fri 06:54:00 AM -22.6647 133.9612 184° South  Level FlightAware Approximate
Fri 06:54:35 AM -22.7042 133.9582 184° South 9,000  Level Aus ATC (Calculated)
Fri 06:56:00 AM -22.7747 133.9530 184° South  Level FlightAware Approximate
Fri 06:57:00 AM -22.8249 133.9493 184° South  Level FlightAware Approximate
Fri 06:58:00 AM -22.8747 133.9457 184° South  Level FlightAware Approximate
Fri 06:58:21 AM -22.8560 133.9470 184° South 700  Level Aus ATC (Calculated)
Fri 07:00:00 AM -22.9381 133.9410 184° South  Level FlightAware Approximate
Fri 07:01:00 AM -22.9879 133.9374 184° South  Level FlightAware Approximate
Fri 07:01:47 AM -23.0433 133.9333 North 700  Level Aus ATC (Calculated)
Fri 07:02:00 AM -23.0377 133.9338 184° South  Level FlightAware Approximate
Fri 07:02:21 AM -23.0433 133.9333 184° South 700  Level Aus ATC (Calculated)
Fri 07:04:00 AM -23.1255 133.9273 184° South  Level FlightAware Approximate
Fri 07:05:00 AM -23.1753 133.9237 184° South  Level FlightAware Approximate
Fri 07:06:00 AM -23.2251 133.9200 184° South  Level FlightAware Approximate
Fri 07:07:00 AM -23.2749 133.9164 184° South  Level FlightAware Approximate
Fri 07:08:00 AM -23.3247 133.9127 184° South  Level FlightAware Approximate
Fri 07:08:09 AM -23.3556 133.9104 184° South 700  Level Aus ATC (Calculated)
Fri 07:10:00 AM -23.4477 133.9037 184° South  Level FlightAware Approximate
Fri 07:11:00 AM -23.4975 133.9000 184° South  Level FlightAware Approximate
Fri 07:12:00 AM -23.5473 133.8963 184° South  Level FlightAware Approximate
Fri 07:13:00 AM -23.5971 133.8927 184° South  Level FlightAware Approximate
Fri 07:13:40 AM -23.6054 133.8920 184° South 700  Level Aus ATC (Calculated)
Fri 07:14:00 AM -23.6469 133.8890 184° South  Level FlightAware Approximate
Fri 07:15:00 AM -23.6718 133.8871 184° South  Level FlightAware Approximate
Fri 07:15:00 AM -23.6678 133.8874 184° South 700  Level Aus ATC (Calculated)
Fri 07:16:00 AM -23.7176 133.8837 184° South  Level FlightAware Approximate
Fri 07:17:00 AM -23.7666 133.8939 127° Southeast  Level Estimated

Login

Don't have an account? Register now (free) for customized features, flight alerts, and more!